GLD1793 FN19-FNLU
Flight info
| Callsign | GLD1793 |
|---|---|
| Flight time | 0h 25m |
| Altitude | 3000 |
| Route | FN19 DTC FNLU |
| Aircraft | BE58/M-SDFGIRY/S |
Departure
| Time | 2026-05-09 10:19 |
|---|---|
| Airport | Cabo Ledo Air Base (FN19) |
Arrival
| Time | 2026-05-09 10:44 |
|---|---|
| Airport | Quatro de Fevereiro International Airport (FNLU) |
| Time | Latitude | Longitude | Altitude | Speed | Heading |
|---|---|---|---|---|---|
| 2026-05-09 10:06 | -9.65176 | 13.25994 | 350 ft | 0 kts | 78° |
| 2026-05-09 10:16 | -9.65176 | 13.25997 | 350 ft | 2 kts | 78° |
| 2026-05-09 10:16 | -9.65168 | 13.26033 | 352 ft | 8 kts | 78° |
| 2026-05-09 10:16 | -9.65155 | 13.26111 | 355 ft | 14 kts | 82° |
| 2026-05-09 10:17 | -9.65157 | 13.26199 | 350 ft | 11 kts | 107° |
| 2026-05-09 10:17 | -9.65200 | 13.26238 | 352 ft | 7 kts | 166° |
| 2026-05-09 10:17 | -9.65251 | 13.26216 | 352 ft | 13 kts | 242° |
| 2026-05-09 10:17 | -9.65343 | 13.25946 | 347 ft | 49 kts | 253° |
| 2026-05-09 10:18 | -9.65394 | 13.25745 | 347 ft | 10 kts | 162° |
| 2026-05-09 10:18 | -9.65371 | 13.25829 | 345 ft | 44 kts | 72° |
| 2026-05-09 10:18 | -9.65207 | 13.26362 | 358 ft | 108 kts | 73° |
| 2026-05-09 10:18 | -9.64923 | 13.27192 | 419 ft | 138 kts | 71° |
| 2026-05-09 10:19 | -9.64533 | 13.28116 | 731 ft | 142 kts | 66° |
| 2026-05-09 10:19 | -9.63881 | 13.28803 | 1112 ft | 142 kts | 19° |
| 2026-05-09 10:19 | -9.62864 | 13.28884 | 1370 ft | 152 kts | 359° |
| 2026-05-09 10:19 | -9.61844 | 13.28774 | 1862 ft | 147 kts | 349° |
| 2026-05-09 10:20 | -9.60837 | 13.28468 | 2162 ft | 154 kts | 338° |
| 2026-05-09 10:20 | -9.59823 | 13.28022 | 2341 ft | 167 kts | 354° |
| 2026-05-09 10:20 | -9.58705 | 13.28326 | 2485 ft | 169 kts | 35° |
| 2026-05-09 10:20 | -9.57673 | 13.28889 | 2759 ft | 169 kts | 20° |
| 2026-05-09 10:21 | -9.56531 | 13.29174 | 2986 ft | 172 kts | 13° |
| 2026-05-09 10:21 | -9.55336 | 13.29423 | 2996 ft | 183 kts | 13° |
| 2026-05-09 10:21 | -9.54065 | 13.29693 | 3006 ft | 190 kts | 14° |
| 2026-05-09 10:21 | -9.52754 | 13.29974 | 3002 ft | 194 kts | 14° |
| 2026-05-09 10:22 | -9.51420 | 13.30262 | 3003 ft | 197 kts | 13° |
| 2026-05-09 10:22 | -9.50068 | 13.30552 | 3005 ft | 199 kts | 14° |
| 2026-05-09 10:22 | -9.48707 | 13.30846 | 3005 ft | 201 kts | 14° |
| 2026-05-09 10:22 | -9.47338 | 13.31141 | 3004 ft | 201 kts | 14° |
| 2026-05-09 10:23 | -9.45967 | 13.31435 | 3004 ft | 201 kts | 13° |
| 2026-05-09 10:23 | -9.44612 | 13.31727 | 3137 ft | 196 kts | 14° |
| 2026-05-09 10:23 | -9.43309 | 13.32007 | 3299 ft | 190 kts | 14° |
| 2026-05-09 10:23 | -9.42031 | 13.32281 | 3505 ft | 186 kts | 14° |
| 2026-05-09 10:24 | -9.40772 | 13.32552 | 3712 ft | 183 kts | 14° |
| 2026-05-09 10:24 | -9.39530 | 13.32820 | 3929 ft | 181 kts | 14° |
| 2026-05-09 10:24 | -9.38299 | 13.33084 | 4139 ft | 180 kts | 14° |
| 2026-05-09 10:24 | -9.37077 | 13.33347 | 4355 ft | 180 kts | 14° |
| 2026-05-09 10:25 | -9.35854 | 13.33610 | 4576 ft | 179 kts | 14° |
| 2026-05-09 10:25 | -9.34635 | 13.33873 | 4793 ft | 179 kts | 14° |
| 2026-05-09 10:25 | -9.33412 | 13.34135 | 4980 ft | 181 kts | 14° |
| 2026-05-09 10:25 | -9.32161 | 13.34407 | 4994 ft | 191 kts | 14° |
| 2026-05-09 10:26 | -9.30837 | 13.34692 | 5001 ft | 197 kts | 14° |
| 2026-05-09 10:26 | -9.29478 | 13.34983 | 5003 ft | 201 kts | 14° |
| 2026-05-09 10:26 | -9.28100 | 13.35279 | 4995 ft | 203 kts | 14° |
| 2026-05-09 10:26 | -9.26708 | 13.35578 | 4998 ft | 205 kts | 14° |
| 2026-05-09 10:27 | -9.25314 | 13.35878 | 4994 ft | 205 kts | 14° |
| 2026-05-09 10:27 | -9.23915 | 13.36179 | 4994 ft | 205 kts | 14° |
| 2026-05-09 10:27 | -9.22519 | 13.36479 | 4994 ft | 205 kts | 14° |
| 2026-05-09 10:27 | -9.21119 | 13.36780 | 4998 ft | 206 kts | 14° |
| 2026-05-09 10:28 | -9.19729 | 13.37079 | 4992 ft | 207 kts | 13° |
| 2026-05-09 10:28 | -9.18314 | 13.37383 | 4993 ft | 208 kts | 13° |
| 2026-05-09 10:28 | -9.16892 | 13.37688 | 4991 ft | 208 kts | 14° |
| 2026-05-09 10:28 | -9.15476 | 13.37993 | 4995 ft | 208 kts | 14° |
| 2026-05-09 10:29 | -9.14060 | 13.38297 | 4994 ft | 208 kts | 13° |
| 2026-05-09 10:29 | -9.12642 | 13.38602 | 4997 ft | 207 kts | 14° |
| 2026-05-09 10:29 | -9.11228 | 13.38906 | 4996 ft | 208 kts | 14° |
| 2026-05-09 10:29 | -9.09809 | 13.39211 | 4997 ft | 208 kts | 14° |
| 2026-05-09 10:30 | -9.08404 | 13.39512 | 4998 ft | 209 kts | 14° |
| 2026-05-09 10:30 | -9.06980 | 13.39818 | 5001 ft | 209 kts | 14° |
| 2026-05-09 10:30 | -9.05558 | 13.40123 | 4997 ft | 209 kts | 13° |
| 2026-05-09 10:30 | -9.04141 | 13.40428 | 4998 ft | 208 kts | 13° |
| 2026-05-09 10:31 | -9.02727 | 13.40731 | 5002 ft | 208 kts | 14° |
| 2026-05-09 10:31 | -9.01313 | 13.41036 | 5000 ft | 208 kts | 14° |
| 2026-05-09 10:31 | -8.99896 | 13.41340 | 5003 ft | 209 kts | 14° |
| 2026-05-09 10:31 | -8.98470 | 13.41644 | 5002 ft | 209 kts | 13° |
| 2026-05-09 10:32 | -8.97044 | 13.41951 | 5004 ft | 209 kts | 14° |
| 2026-05-09 10:32 | -8.95627 | 13.42256 | 5002 ft | 208 kts | 14° |
| 2026-05-09 10:32 | -8.94210 | 13.42560 | 5006 ft | 208 kts | 14° |
| 2026-05-09 10:32 | -8.92793 | 13.42864 | 5002 ft | 208 kts | 13° |
| 2026-05-09 10:33 | -8.91370 | 13.43169 | 5004 ft | 208 kts | 13° |
| 2026-05-09 10:33 | -8.89954 | 13.43473 | 5000 ft | 208 kts | 14° |
| 2026-05-09 10:33 | -8.88538 | 13.43776 | 5004 ft | 207 kts | 14° |
| 2026-05-09 10:33 | -8.87125 | 13.44080 | 5001 ft | 207 kts | 14° |
| 2026-05-09 10:34 | -8.85713 | 13.44383 | 5004 ft | 208 kts | 14° |
| 2026-05-09 10:34 | -8.82888 | 13.44989 | 5003 ft | 208 kts | 13° |
| 2026-05-09 10:34 | -8.81471 | 13.45293 | 5007 ft | 208 kts | 13° |
| 2026-05-09 10:35 | -8.80051 | 13.45597 | 5001 ft | 208 kts | 13° |
| 2026-05-09 10:35 | -8.78635 | 13.45901 | 5004 ft | 208 kts | 13° |
| 2026-05-09 10:35 | -8.77235 | 13.46201 | 5001 ft | 208 kts | 13° |
| 2026-05-09 10:35 | -8.75818 | 13.46504 | 4999 ft | 208 kts | 13° |
| 2026-05-09 10:36 | -8.74402 | 13.46808 | 5002 ft | 208 kts | 13° |
| 2026-05-09 10:36 | -8.72980 | 13.47079 | 4995 ft | 208 kts | 6° |
| 2026-05-09 10:36 | -8.71542 | 13.46893 | 4993 ft | 210 kts | 343° |
| 2026-05-09 10:36 | -8.70263 | 13.46187 | 4997 ft | 211 kts | 322° |
| 2026-05-09 10:37 | -8.69029 | 13.45450 | 4993 ft | 209 kts | 348° |
| 2026-05-09 10:37 | -8.67590 | 13.45305 | 4999 ft | 209 kts | 354° |
| 2026-05-09 10:37 | -8.66178 | 13.44967 | 4993 ft | 211 kts | 333° |
| 2026-05-09 10:37 | -8.65171 | 13.43914 | 4993 ft | 213 kts | 296° |
| 2026-05-09 10:38 | -8.64970 | 13.42454 | 4972 ft | 213 kts | 260° |
| 2026-05-09 10:38 | -8.65625 | 13.41083 | 4622 ft | 226 kts | 226° |
| 2026-05-09 10:38 | -8.66925 | 13.40278 | 4232 ft | 210 kts | 194° |
| 2026-05-09 10:38 | -8.68293 | 13.40035 | 3678 ft | 199 kts | 188° |
| 2026-05-09 10:39 | -8.69627 | 13.39711 | 3080 ft | 196 kts | 198° |
| 2026-05-09 10:39 | -8.70795 | 13.39188 | 2985 ft | 169 kts | 207° |
| 2026-05-09 10:39 | -8.71666 | 13.38505 | 2982 ft | 153 kts | 222° |
| 2026-05-09 10:39 | -8.72399 | 13.37744 | 2989 ft | 150 kts | 224° |
| 2026-05-09 10:40 | -8.73114 | 13.36980 | 2989 ft | 148 kts | 225° |
| 2026-05-09 10:40 | -8.73833 | 13.36237 | 2992 ft | 147 kts | 223° |
| 2026-05-09 10:40 | -8.74548 | 13.35498 | 2993 ft | 147 kts | 224° |
| 2026-05-09 10:40 | -8.75246 | 13.34748 | 2995 ft | 148 kts | 225° |
| 2026-05-09 10:41 | -8.75973 | 13.33964 | 2852 ft | 157 kts | 225° |
| 2026-05-09 10:41 | -8.76742 | 13.33138 | 2649 ft | 164 kts | 225° |
| 2026-05-09 10:41 | -8.77538 | 13.32284 | 2433 ft | 169 kts | 225° |
| 2026-05-09 10:41 | -8.78341 | 13.31421 | 2224 ft | 171 kts | 225° |
| 2026-05-09 10:42 | -8.79161 | 13.30540 | 1989 ft | 172 kts | 225° |
| 2026-05-09 10:42 | -8.79981 | 13.29659 | 1768 ft | 172 kts | 225° |
| 2026-05-09 10:42 | -8.80805 | 13.28772 | 1540 ft | 172 kts | 225° |
| 2026-05-09 10:42 | -8.81625 | 13.27892 | 1316 ft | 172 kts | 225° |
| 2026-05-09 10:43 | -8.82441 | 13.27008 | 1098 ft | 172 kts | 226° |
| 2026-05-09 10:43 | -8.83259 | 13.26128 | 890 ft | 170 kts | 227° |
| 2026-05-09 10:43 | -8.84060 | 13.25266 | 684 ft | 169 kts | 227° |
| 2026-05-09 10:43 | -8.84863 | 13.24404 | 463 ft | 164 kts | 228° |
| 2026-05-09 10:44 | -8.85565 | 13.23652 | 280 ft | 129 kts | 228° |
| 2026-05-09 10:44 | -8.86096 | 13.23081 | 242 ft | 96 kts | 231° |
| 2026-05-09 10:44 | -8.86483 | 13.22663 | 240 ft | 57 kts | 227° |
| 2026-05-09 10:44 | -8.86653 | 13.22481 | 238 ft | 27 kts | 227° |
| 2026-05-09 10:45 | -8.86711 | 13.22370 | 237 ft | 15 kts | 273° |
| 2026-05-09 10:46 | -8.86683 | 13.22308 | 237 ft | 0 kts | 1° |
| 2026-05-09 10:46 | -8.86680 | 13.22308 | 237 ft | 0 kts | 1° |